createdAt,value
2023-02-14T00:00:37.836Z,-2.3
2023-02-14T00:03:04.527Z,-2.4
2023-02-14T00:07:57.893Z,-2.7
2023-02-14T00:12:51.273Z,-2.8
2023-02-14T00:15:17.950Z,-2.8
2023-02-14T00:17:44.633Z,-2.8
2023-02-14T00:22:36.535Z,-2.6
2023-02-14T00:27:29.924Z,-2.7
2023-02-14T00:29:56.601Z,-2.7
2023-02-14T00:32:23.316Z,-2.7
2023-02-14T00:37:16.662Z,-2.8
2023-02-14T00:39:43.353Z,-2.8
2023-02-14T00:42:10.033Z,-2.9
2023-02-14T00:44:36.712Z,-2.8
2023-02-14T00:47:03.410Z,-2.8
2023-02-14T00:51:56.790Z,-2.8
2023-02-14T00:56:48.680Z,-2.5
2023-02-14T00:59:15.379Z,-2.6
2023-02-14T01:01:43.660Z,-2.7
2023-02-14T01:06:35.433Z,-2.8
2023-02-14T01:11:28.810Z,-2.8
2023-02-14T01:13:55.486Z,-2.9
2023-02-14T01:16:22.162Z,-2.9
2023-02-14T01:18:48.859Z,-3.1
2023-02-14T01:21:15.553Z,-3
2023-02-14T01:23:42.237Z,-3.1
2023-02-14T01:26:08.926Z,-3.1
2023-02-14T01:28:34.131Z,-3.1
2023-02-14T01:31:00.830Z,-3.1
2023-02-14T01:35:54.191Z,-3.1
2023-02-14T01:40:47.560Z,-3.2
2023-02-14T01:43:14.247Z,-3.1
2023-02-14T01:45:40.924Z,-3.1
2023-02-14T01:48:07.624Z,-3.2
2023-02-14T01:50:34.309Z,-3.3
2023-02-14T01:53:00.997Z,-3.3
2023-02-14T01:55:27.674Z,-3.3
2023-02-14T01:57:54.367Z,-3.3
2023-02-14T02:00:19.596Z,-3.2
2023-02-14T02:02:46.284Z,-3.2
2023-02-14T02:05:12.958Z,-3.2
2023-02-14T02:07:39.664Z,-3.2
2023-02-14T02:10:06.337Z,-3.3
2023-02-14T02:12:33.016Z,-3.3
2023-02-14T02:14:59.702Z,-3.3
2023-02-14T02:17:26.391Z,-3.4
2023-02-14T02:19:53.082Z,-3.4
2023-02-14T02:22:19.772Z,-3.5
2023-02-14T02:24:46.464Z,-3.6
2023-02-14T02:27:11.703Z,-3.6
2023-02-14T02:29:36.930Z,-3.6
2023-02-14T02:32:03.623Z,-3.5
2023-02-14T02:34:30.292Z,-3.4
2023-02-14T02:36:57.003Z,-3.4
2023-02-14T02:39:23.673Z,-3.5
2023-02-14T02:41:50.341Z,-3.5
2023-02-14T02:44:17.041Z,-3.5
2023-02-14T02:46:43.727Z,-3.5
2023-02-14T02:49:10.409Z,-3.5
2023-02-14T02:54:03.773Z,-3.3
2023-02-14T02:56:30.458Z,-3.3
2023-02-14T02:58:57.162Z,-3.3
2023-02-14T03:01:22.374Z,-3.4
2023-02-14T03:03:49.052Z,-3.5
2023-02-14T03:06:15.762Z,-3.5
2023-02-14T03:08:42.432Z,-3.5
2023-02-14T03:11:09.099Z,-3.6
2023-02-14T03:13:35.796Z,-3.6
2023-02-14T03:16:02.489Z,-3.5
2023-02-14T03:18:29.159Z,-3.6
2023-02-14T03:20:55.850Z,-3.5
2023-02-14T03:23:22.552Z,-3.5
2023-02-14T03:25:49.222Z,-3.6
2023-02-14T03:28:15.907Z,-3.6
2023-02-14T03:30:42.616Z,-3.6
2023-02-14T03:33:07.826Z,-3.5
2023-02-14T03:38:01.186Z,-3.4
2023-02-14T03:40:27.873Z,-3.3
2023-02-14T03:42:54.557Z,-3.5
2023-02-14T03:45:21.249Z,-3.5
2023-02-14T03:47:47.945Z,-3.6
2023-02-14T03:50:14.629Z,-3.7
2023-02-14T03:52:41.299Z,-3.7
2023-02-14T03:55:07.630Z,-3.7
2023-02-14T03:57:32.856Z,-3.8
2023-02-14T03:59:59.543Z,-3.8
2023-02-14T04:02:26.282Z,-3.8
2023-02-14T04:07:19.594Z,-3.6
2023-02-14T04:09:46.283Z,-3.6
2023-02-14T04:12:12.964Z,-3.5
2023-02-14T04:14:39.637Z,-3.4
2023-02-14T04:17:06.352Z,-3.5
2023-02-14T04:19:33.019Z,-3.5
2023-02-14T04:21:59.708Z,-3.6
2023-02-14T04:24:26.383Z,-3.6
2023-02-14T04:26:53.067Z,-3.6
2023-02-14T04:29:18.312Z,-3.6
2023-02-14T04:31:44.978Z,-3.5
2023-02-14T04:34:11.664Z,-3.6
2023-02-14T04:36:38.353Z,-3.6
2023-02-14T04:39:05.034Z,-3.3
2023-02-14T04:41:31.721Z,-3.3
2023-02-14T04:43:58.426Z,-3.5
2023-02-14T04:46:25.098Z,-3.6
2023-02-14T04:48:51.782Z,-3.6
2023-02-14T04:51:18.469Z,-3.7
2023-02-14T04:53:45.157Z,-3.6
2023-02-14T04:56:11.837Z,-3.2
2023-02-14T04:58:38.528Z,-3.2
2023-02-14T05:01:03.745Z,-3.1
2023-02-14T05:03:30.429Z,-3.2
2023-02-14T05:05:57.116Z,-3.1
2023-02-14T05:08:23.808Z,-3.4
2023-02-14T05:10:50.503Z,-3.6
2023-02-14T05:13:17.177Z,-3.6
2023-02-14T05:15:43.863Z,-3.7
2023-02-14T05:18:10.553Z,-3.8
2023-02-14T05:20:37.237Z,-3.8
2023-02-14T05:23:03.907Z,-3.6
2023-02-14T05:25:30.604Z,-3.7
2023-02-14T05:27:57.292Z,-3.8
2023-02-14T05:30:22.520Z,-4
2023-02-14T05:32:49.226Z,-4
2023-02-14T05:35:15.894Z,-3.9
2023-02-14T05:37:42.588Z,-3.8
2023-02-14T05:40:09.271Z,-3.8
2023-02-14T05:42:35.952Z,-3.6
2023-02-14T05:45:02.647Z,-3.6
2023-02-14T05:47:29.335Z,-3.4
2023-02-14T05:49:56.022Z,-3.6
2023-02-14T05:52:22.706Z,-3.7
2023-02-14T05:54:49.419Z,-3.7
2023-02-14T05:57:16.090Z,-3.9
2023-02-14T05:59:42.789Z,-3.9
2023-02-14T06:02:08.003Z,-3.9
2023-02-14T06:04:34.674Z,-3.9
2023-02-14T06:07:01.363Z,-3.9
2023-02-14T06:09:28.049Z,-3.9
2023-02-14T06:11:54.745Z,-3.9
2023-02-14T06:14:21.416Z,-4
2023-02-14T06:16:48.112Z,-3.9
2023-02-14T06:19:14.786Z,-3.9
2023-02-14T06:21:41.477Z,-3.9
2023-02-14T06:24:08.165Z,-3.9
2023-02-14T06:26:34.854Z,-3.9
2023-02-14T06:29:01.533Z,-3.9
2023-02-14T06:31:28.225Z,-3.9
2023-02-14T06:33:53.454Z,-4
2023-02-14T06:36:20.136Z,-3.9
2023-02-14T06:38:46.811Z,-4
2023-02-14T06:41:13.541Z,-3.9
2023-02-14T06:43:40.178Z,-4
2023-02-14T06:46:06.873Z,-4
2023-02-14T06:48:33.568Z,-3.9
2023-02-14T06:51:00.256Z,-3.8
2023-02-14T06:53:26.931Z,-3.8
2023-02-14T06:55:53.628Z,-3.6
2023-02-14T06:58:20.305Z,-3.4
2023-02-14T07:00:47.013Z,-3.1
2023-02-14T07:03:13.686Z,-2.7
2023-02-14T07:05:38.912Z,-2.5
2023-02-14T07:08:05.579Z,-2.3
2023-02-14T07:10:32.275Z,-1.9
2023-02-14T07:12:58.957Z,-1.4
2023-02-14T07:15:25.684Z,-0.6
2023-02-14T07:17:52.320Z,0.2
2023-02-14T07:20:19.015Z,0.9
2023-02-14T07:22:45.694Z,1.8
2023-02-14T07:25:12.391Z,2.5
2023-02-14T07:27:39.068Z,3
2023-02-14T07:30:05.763Z,3.5
2023-02-14T07:32:32.491Z,4
2023-02-14T07:34:59.117Z,4.3
2023-02-14T07:37:24.346Z,4.6
2023-02-14T07:39:51.029Z,4.9
2023-02-14T07:42:17.721Z,5.4
2023-02-14T07:44:44.472Z,5.7
2023-02-14T07:47:11.099Z,6
2023-02-14T07:49:37.777Z,6.4
2023-02-14T07:52:04.629Z,6.9
2023-02-14T07:54:31.150Z,6.7
2023-02-14T07:56:58.017Z,7.1
2023-02-14T07:59:24.574Z,7.6
2023-02-14T08:01:51.443Z,8
2023-02-14T08:04:18.030Z,8.1
2023-02-14T08:06:44.644Z,8.4
2023-02-14T08:09:09.812Z,8.6
2023-02-14T08:11:36.479Z,8.6
2023-02-14T08:14:03.230Z,8.6
2023-02-14T08:16:29.958Z,8.6
2023-02-14T08:18:56.614Z,8.5
2023-02-14T08:21:23.347Z,8.6
2023-02-14T08:23:49.933Z,8.5
2023-02-14T08:26:16.740Z,8.6
2023-02-14T08:28:43.309Z,8.8
2023-02-14T08:31:09.968Z,9.6
2023-02-14T08:33:36.784Z,10
2023-02-14T08:36:03.489Z,8.6
2023-02-14T08:38:30.117Z,8.5
2023-02-14T08:40:55.279Z,9.1
2023-02-14T08:45:48.657Z,9.7
2023-02-14T08:48:15.362Z,10.4
2023-02-14T08:50:42.061Z,10.7
2023-02-14T08:53:08.725Z,11.3
2023-02-14T08:55:35.375Z,11.7
2023-02-14T08:58:02.060Z,11.7
2023-02-14T09:00:28.719Z,11.8
2023-02-14T09:02:55.439Z,11.9
2023-02-14T09:05:22.088Z,12
2023-02-14T09:07:48.912Z,11.4
2023-02-14T09:10:15.695Z,12.1
2023-02-14T09:15:07.383Z,12.3
2023-02-14T09:17:34.057Z,12.3
2023-02-14T09:20:00.740Z,12.5
2023-02-14T09:22:27.429Z,12.5
2023-02-14T09:24:54.130Z,12.6
2023-02-14T09:29:47.488Z,12.3
2023-02-14T09:32:12.755Z,12.4
2023-02-14T09:34:37.960Z,12.6
2023-02-14T09:37:04.644Z,12.6
2023-02-14T09:39:31.328Z,12.9
2023-02-14T09:41:58.032Z,13.3
2023-02-14T09:44:24.733Z,13
2023-02-14T09:46:51.397Z,12.6
2023-02-14T09:49:18.080Z,12.6
2023-02-14T09:56:38.300Z,13
2023-02-14T09:59:04.822Z,13.1
2023-02-14T10:01:31.492Z,12.6
2023-02-14T10:03:56.750Z,11.6
2023-02-14T10:06:21.972Z,10.9
2023-02-14T10:08:48.668Z,10.3
2023-02-14T10:11:15.341Z,9.5
2023-02-14T10:13:42.032Z,8.5
2023-02-14T10:16:08.721Z,8
2023-02-14T10:25:55.458Z,7.8
2023-02-14T10:35:42.218Z,8
2023-02-14T10:38:07.424Z,8
2023-02-14T10:40:34.100Z,8.1
2023-02-14T10:45:27.492Z,8.3
2023-02-14T10:47:54.162Z,8.4
2023-02-14T10:50:20.861Z,8.4
2023-02-14T10:52:47.534Z,8.4
2023-02-14T10:57:40.894Z,8.6
2023-02-14T11:00:07.572Z,8.7
2023-02-14T11:02:34.283Z,8.7
2023-02-14T11:05:01.020Z,8.9
2023-02-14T11:09:54.383Z,9.1
2023-02-14T11:17:14.388Z,9.2
2023-02-14T11:19:39.686Z,9.2
2023-02-14T11:22:06.366Z,9.3
2023-02-14T11:24:32.999Z,9.4
2023-02-14T11:26:59.835Z,9.6
2023-02-14T11:29:26.508Z,9.9
2023-02-14T11:31:53.235Z,9.9
2023-02-14T11:34:19.836Z,9.9
2023-02-14T11:36:46.550Z,10
2023-02-14T11:39:13.089Z,10.2
2023-02-14T11:41:39.866Z,10.1
2023-02-14T11:44:06.454Z,10.2
2023-02-14T11:46:33.229Z,10.1
2023-02-14T11:48:59.981Z,10.3
2023-02-14T11:51:25.070Z,10.4
2023-02-14T11:53:51.765Z,10.6
2023-02-14T11:58:45.207Z,10.8
2023-02-14T12:01:11.892Z,10.9
2023-02-14T12:06:05.178Z,10.7
2023-02-14T12:08:31.857Z,10.8
2023-02-14T12:10:58.575Z,10.7
2023-02-14T12:13:25.471Z,10.7
2023-02-14T12:15:51.910Z,10.8
2023-02-14T12:18:18.596Z,10.9
2023-02-14T12:20:45.356Z,11
2023-02-14T12:23:10.521Z,10.9
2023-02-14T12:25:37.329Z,11.1
2023-02-14T12:28:03.855Z,11.2
2023-02-14T12:30:30.551Z,11.4
2023-02-14T12:32:57.249Z,11.4
2023-02-14T12:37:50.636Z,11.5
2023-02-14T12:40:17.360Z,11.6
2023-02-14T12:42:44.021Z,11.6
2023-02-14T12:50:04.031Z,11.7
2023-02-14T12:52:30.718Z,11.8
2023-02-14T12:54:55.945Z,11.7
2023-02-14T12:57:22.695Z,11.8
2023-02-14T12:59:49.308Z,12
2023-02-14T13:04:42.744Z,12
2023-02-14T13:07:09.365Z,12
2023-02-14T13:12:02.805Z,12.1
2023-02-14T13:14:29.442Z,12
2023-02-14T13:19:22.803Z,12.1
2023-02-14T13:21:49.488Z,12.2
2023-02-14T13:24:16.193Z,12.1
2023-02-14T13:29:08.089Z,12.2
2023-02-14T13:34:01.430Z,12.3
2023-02-14T13:36:28.119Z,12.3
2023-02-14T13:38:54.836Z,12.3
2023-02-14T13:41:21.516Z,12.3
2023-02-14T13:43:47.799Z,12.4
2023-02-14T13:46:14.484Z,12.5
2023-02-14T13:48:41.162Z,12.6
2023-02-14T13:53:34.573Z,12.6
2023-02-14T13:56:01.218Z,12.6
2023-02-14T14:00:54.601Z,12.8
2023-02-14T14:03:21.306Z,12.9
2023-02-14T14:05:47.958Z,12.6
2023-02-14T14:08:14.639Z,12.6
2023-02-14T14:10:41.334Z,12.7
2023-02-14T14:13:08.013Z,12.9
2023-02-14T14:17:59.917Z,12.9
2023-02-14T14:20:26.607Z,12.8
2023-02-14T14:22:53.278Z,12.9
2023-02-14T14:25:19.961Z,12.9
2023-02-14T14:27:46.661Z,12.9
2023-02-14T14:30:13.337Z,13
2023-02-14T14:32:40.018Z,13
2023-02-14T14:35:06.706Z,13
2023-02-14T14:37:33.398Z,13
2023-02-14T14:40:00.094Z,12.9
2023-02-14T14:42:26.767Z,12.8
2023-02-14T14:44:53.452Z,12.9
2023-02-14T14:47:19.752Z,12.8
2023-02-14T14:49:46.421Z,12.9
2023-02-14T14:52:12.796Z,12.9
2023-02-14T14:54:37.976Z,12.8
2023-02-14T14:57:04.675Z,12.8
2023-02-14T15:01:58.058Z,12.7
2023-02-14T15:04:24.714Z,12.6
2023-02-14T15:06:51.395Z,12.5
2023-02-14T15:09:18.194Z,12.3
2023-02-14T15:11:44.774Z,12.2
2023-02-14T15:14:11.459Z,12.1
2023-02-14T15:19:04.823Z,11.9
2023-02-14T15:21:31.503Z,11.8
2023-02-14T15:23:58.194Z,11.8
2023-02-14T15:26:24.521Z,11.7
2023-02-14T15:31:16.422Z,11.5
2023-02-14T15:33:43.127Z,11.4
2023-02-14T15:36:09.792Z,11.3
2023-02-14T15:38:36.469Z,11.2
2023-02-14T15:41:03.164Z,11.2
2023-02-14T15:45:56.522Z,11
2023-02-14T15:48:23.210Z,10.9
2023-02-14T15:50:49.900Z,10.8
2023-02-14T15:53:16.579Z,10.7
2023-02-14T15:55:43.267Z,10.6
2023-02-14T16:00:36.631Z,10.5
2023-02-14T16:03:01.850Z,10.3
2023-02-14T16:05:28.567Z,10.3
2023-02-14T16:07:55.206Z,10.2
2023-02-14T16:10:21.890Z,10
2023-02-14T16:12:48.566Z,9.9
2023-02-14T16:15:15.261Z,9.6
2023-02-14T16:17:41.975Z,9.4
2023-02-14T16:20:08.619Z,9.2
2023-02-14T16:22:35.310Z,9
2023-02-14T16:25:02.038Z,8.8
2023-02-14T16:29:55.356Z,8.6
2023-02-14T16:32:22.072Z,8.4
2023-02-14T16:34:48.348Z,8.2
2023-02-14T16:37:15.046Z,8.1
2023-02-14T16:39:41.721Z,7.9
2023-02-14T16:44:35.127Z,7.7
2023-02-14T16:47:01.770Z,7.5
2023-02-14T16:49:28.468Z,7.4
2023-02-14T16:51:55.182Z,7.3
2023-02-14T16:54:21.828Z,7.1
2023-02-14T16:59:15.196Z,6.8
2023-02-14T17:01:41.891Z,6.7
2023-02-14T17:04:08.572Z,6.7
2023-02-14T17:06:33.803Z,6.6
2023-02-14T17:09:00.482Z,6.5
2023-02-14T17:13:53.838Z,6.2
2023-02-14T17:16:20.536Z,6
2023-02-14T17:18:47.235Z,5.8
2023-02-14T17:21:13.896Z,5.5
2023-02-14T17:23:40.619Z,5.3
2023-02-14T17:28:33.983Z,4.5
2023-02-14T17:31:00.648Z,4.3
2023-02-14T17:33:27.323Z,4.2
2023-02-14T17:35:54.022Z,4
2023-02-14T17:38:20.302Z,3.9
2023-02-14T17:43:13.682Z,3.8
2023-02-14T17:45:40.359Z,3.8
2023-02-14T17:48:07.049Z,3.7
2023-02-14T17:50:33.711Z,3.6
2023-02-14T17:53:00.416Z,3.6
2023-02-14T17:57:53.785Z,3.3
2023-02-14T18:00:20.468Z,3.2
2023-02-14T18:05:13.833Z,3
2023-02-14T18:07:40.527Z,2.6
2023-02-14T18:12:32.451Z,2.4
2023-02-14T18:14:59.135Z,2.3
2023-02-14T18:17:25.806Z,2.3
2023-02-14T18:19:52.531Z,2.3
2023-02-14T18:22:19.178Z,2.3
2023-02-14T18:27:12.592Z,1.9
2023-02-14T18:29:39.236Z,1.7
2023-02-14T18:32:05.914Z,1.7
2023-02-14T18:34:32.586Z,1.7
2023-02-14T18:36:59.280Z,1.5
2023-02-14T18:41:52.663Z,1.4
2023-02-14T18:44:19.382Z,1.3
2023-02-14T18:46:44.564Z,1.3
2023-02-14T18:49:11.275Z,1.3
2023-02-14T18:56:31.302Z,1.3
2023-02-14T18:58:58.038Z,1.3
2023-02-14T19:01:24.673Z,1.2
2023-02-14T19:03:51.367Z,1
2023-02-14T19:06:18.078Z,0.8
2023-02-14T19:11:11.416Z,0.9
2023-02-14T19:13:38.186Z,0.9
2023-02-14T19:18:31.440Z,0.7
2023-02-14T19:20:58.161Z,0.6
2023-02-14T19:25:50.060Z,0.4
2023-02-14T19:28:16.755Z,0.5
2023-02-14T19:30:43.428Z,0.5
2023-02-14T19:33:10.123Z,0.5
2023-02-14T19:35:36.862Z,0.5
2023-02-14T19:42:56.853Z,0.4
2023-02-14T19:45:23.696Z,0.3
2023-02-14T19:47:50.355Z,0.2
2023-02-14T19:50:17.053Z,0.2
2023-02-14T19:55:10.379Z,0.1
2023-02-14T19:57:37.032Z,0.1
2023-02-14T20:00:02.188Z,0
2023-02-14T20:02:28.927Z,0.1
2023-02-14T20:07:22.444Z,0
2023-02-14T20:09:48.929Z,0
2023-02-14T20:12:15.731Z,-0.1
2023-02-14T20:14:42.321Z,-0.2
2023-02-14T20:17:09.096Z,-0.2
2023-02-14T20:19:35.693Z,-0.3
2023-02-14T20:22:02.344Z,-0.3
2023-02-14T20:24:29.069Z,-0.3
2023-02-14T20:26:55.712Z,-0.3
2023-02-14T20:29:22.405Z,-0.3
2023-02-14T20:31:49.186Z,-0.3
2023-02-14T20:34:15.770Z,-0.3
2023-02-14T20:39:09.297Z,-0.4
2023-02-14T20:41:35.860Z,-0.3
2023-02-14T20:44:02.598Z,-0.3
2023-02-14T20:46:27.773Z,-0.4
2023-02-14T20:48:54.424Z,-0.4
2023-02-14T20:53:47.796Z,-0.6
2023-02-14T20:56:14.518Z,-0.5
2023-02-14T20:58:41.163Z,-0.5
2023-02-14T21:01:07.864Z,-0.5
2023-02-14T21:06:01.215Z,-0.6
2023-02-14T21:08:27.901Z,-0.6
2023-02-14T21:13:21.289Z,-0.7
2023-02-14T21:15:48.058Z,-0.6
2023-02-14T21:18:14.650Z,-0.7
2023-02-14T21:25:34.711Z,-0.7
2023-02-14T21:28:01.377Z,-0.7
2023-02-14T21:30:26.746Z,-0.7
2023-02-14T21:32:53.477Z,-0.8
2023-02-14T21:35:20.125Z,-0.8
2023-02-14T21:37:46.811Z,-0.7
2023-02-14T21:40:13.448Z,-0.6
2023-02-14T21:42:40.160Z,-0.7
2023-02-14T21:45:06.822Z,-0.8
2023-02-14T21:47:33.471Z,-0.9
2023-02-14T21:50:00.103Z,-0.9
2023-02-14T21:52:26.858Z,-0.9
2023-02-14T21:54:52.018Z,-0.9
2023-02-14T21:57:18.773Z,-1
2023-02-14T21:59:45.461Z,-1
2023-02-14T22:02:12.204Z,-1
2023-02-14T22:04:38.857Z,-1
2023-02-14T22:07:05.552Z,-1
2023-02-14T22:09:32.216Z,-0.9
2023-02-14T22:11:58.888Z,-0.8
2023-02-14T22:14:24.059Z,-0.8
2023-02-14T22:16:50.420Z,-0.8
2023-02-14T22:21:43.817Z,-1.1
2023-02-14T22:24:10.589Z,-1.2
2023-02-14T22:26:37.216Z,-1.1
2023-02-14T22:29:03.837Z,-1
2023-02-14T22:31:30.477Z,-1.1
2023-02-14T22:33:57.216Z,-1.1
2023-02-14T22:36:23.851Z,-1.1
2023-02-14T22:38:50.587Z,-1.2
2023-02-14T22:41:17.224Z,-1.3
2023-02-14T22:43:43.906Z,-1.3
2023-02-14T22:46:10.652Z,-1.2
2023-02-14T22:51:02.479Z,-1.1
2023-02-14T22:58:21.091Z,-1.6
2023-02-14T23:00:47.423Z,-1.7
2023-02-14T23:05:40.871Z,-1.6
2023-02-14T23:10:32.705Z,-1.6
2023-02-14T23:12:59.396Z,-1.6
2023-02-14T23:15:26.075Z,-1.7
2023-02-14T23:20:19.485Z,-1.9
2023-02-14T23:25:12.877Z,-1.9
2023-02-14T23:27:39.493Z,-1.9
2023-02-14T23:30:06.260Z,-1.8
2023-02-14T23:32:32.876Z,-1.8
2023-02-14T23:34:59.564Z,-1.7
2023-02-14T23:39:52.943Z,-1.5
2023-02-14T23:42:18.176Z,-1.7
2023-02-14T23:44:44.835Z,-1.9
2023-02-14T23:49:38.207Z,-2.1
2023-02-14T23:54:31.574Z,-2.1
2023-02-14T23:56:58.279Z,-2.1
2023-02-14T23:59:25.004Z,-2.1
